createdAt,value
2017-12-28T00:00:08.991Z,97535
2017-12-28T00:05:10.521Z,97546
2017-12-28T00:10:12.759Z,97556
2017-12-28T00:15:14.257Z,97544
2017-12-28T00:20:15.768Z,97545
2017-12-28T00:25:17.251Z,97556
2017-12-28T00:30:18.860Z,97572
2017-12-28T00:35:20.397Z,97577
2017-12-28T00:40:22.017Z,97582
2017-12-28T00:45:24.289Z,97578
2017-12-28T00:50:25.857Z,97589
2017-12-28T00:55:27.402Z,97589
2017-12-28T01:00:28.950Z,97606
2017-12-28T01:05:30.509Z,97602
2017-12-28T01:10:32.001Z,97608
2017-12-28T01:15:33.605Z,97633
2017-12-28T01:20:35.888Z,97640
2017-12-28T01:25:38.185Z,97646
2017-12-28T01:30:40.529Z,97658
2017-12-28T01:35:42.084Z,97661
2017-12-28T01:40:43.631Z,97670
2017-12-28T01:45:45.184Z,97675
2017-12-28T01:50:46.709Z,97679
2017-12-28T01:55:48.253Z,97682
2017-12-28T02:00:49.794Z,97673
2017-12-28T02:05:58.325Z,97679
2017-12-28T02:10:59.934Z,97687
2017-12-28T02:16:01.434Z,97695
2017-12-28T02:21:03.723Z,97693
2017-12-28T02:26:05.973Z,97699
2017-12-28T02:31:07.474Z,97698
2017-12-28T02:36:09.753Z,97709
2017-12-28T02:41:12.033Z,97720
2017-12-28T02:46:14.316Z,97726
2017-12-28T02:51:15.817Z,97727
2017-12-28T02:56:17.389Z,97744
2017-12-28T03:01:18.934Z,97734
2017-12-28T03:06:21.204Z,97742
2017-12-28T03:11:22.731Z,97741
2017-12-28T03:16:24.239Z,97766
2017-12-28T03:21:25.725Z,97773
2017-12-28T03:26:27.964Z,97784
2017-12-28T03:31:29.485Z,97797
2017-12-28T03:36:31.025Z,97805
2017-12-28T03:41:33.320Z,97811
2017-12-28T03:46:35.597Z,97833
2017-12-28T03:51:37.888Z,97836
2017-12-28T03:56:40.120Z,97847
2017-12-28T04:01:41.613Z,97861
2017-12-28T04:06:43.125Z,97875
2017-12-28T04:11:44.697Z,97895
2017-12-28T04:16:46.207Z,97907
2017-12-28T04:21:47.744Z,97923
2017-12-28T04:26:49.287Z,97939
2017-12-28T04:31:51.517Z,97943
2017-12-28T04:36:53.037Z,97969
2017-12-28T04:41:55.337Z,97983
2017-12-28T04:46:56.880Z,97984
2017-12-28T04:51:59.176Z,98010
2017-12-28T04:57:00.707Z,98012
2017-12-28T05:02:02.222Z,98010
2017-12-28T05:07:03.700Z,98023
2017-12-28T05:12:05.204Z,98032
2017-12-28T05:17:06.809Z,98039
2017-12-28T05:22:09.120Z,98056
2017-12-28T05:27:10.673Z,98057
2017-12-28T05:32:12.232Z,98072
2017-12-28T05:37:13.752Z,98086
2017-12-28T05:42:15.246Z,98087
2017-12-28T05:47:16.804Z,98099
2017-12-28T05:52:18.337Z,98107
2017-12-28T05:57:19.855Z,98107
2017-12-28T06:02:22.101Z,98132
2017-12-28T06:07:23.574Z,98135
2017-12-28T06:12:25.112Z,98156
2017-12-28T06:17:26.615Z,98160
2017-12-28T06:22:28.177Z,98151
2017-12-28T06:27:29.659Z,98159
2017-12-28T06:32:31.201Z,98176
2017-12-28T06:37:32.756Z,98182
2017-12-28T06:42:34.279Z,98191
2017-12-28T06:47:36.618Z,98191
2017-12-28T06:52:38.101Z,98194
2017-12-28T06:57:39.579Z,98206
2017-12-28T07:02:41.065Z,98219
2017-12-28T07:07:43.301Z,98226
2017-12-28T07:12:44.796Z,98221
2017-12-28T07:17:46.329Z,98233
2017-12-28T07:22:47.827Z,98227
2017-12-28T07:27:49.369Z,98236
2017-12-28T07:32:50.938Z,98258
2017-12-28T07:37:53.152Z,98252
2017-12-28T07:42:54.688Z,98271
2017-12-28T07:47:56.217Z,98271
2017-12-28T07:52:57.848Z,98283
2017-12-28T07:57:59.402Z,98287
2017-12-28T08:03:00.919Z,98303
2017-12-28T08:08:03.136Z,98312
2017-12-28T08:13:04.700Z,98307
2017-12-28T08:18:06.232Z,98306
2017-12-28T08:23:08.566Z,98309
2017-12-28T08:28:10.117Z,98315
2017-12-28T08:33:11.625Z,98335
2017-12-28T08:38:13.149Z,98343
2017-12-28T08:43:14.782Z,98341
2017-12-28T08:48:17.060Z,98360
2017-12-28T08:53:19.345Z,98372
2017-12-28T08:58:20.860Z,98389
2017-12-28T09:03:22.384Z,98409
2017-12-28T09:08:24.640Z,98423
2017-12-28T09:13:26.176Z,98438
2017-12-28T09:18:27.734Z,98444
2017-12-28T09:23:29.352Z,98459
2017-12-28T09:28:30.896Z,98474
2017-12-28T09:33:32.377Z,98474
2017-12-28T09:38:33.831Z,98492
2017-12-28T09:43:35.326Z,98493
2017-12-28T09:48:36.885Z,98494
2017-12-28T09:53:38.426Z,98506
2017-12-28T09:58:39.937Z,98505
2017-12-28T10:03:41.468Z,98512
2017-12-28T10:08:42.993Z,98519
2017-12-28T10:13:45.261Z,98541
2017-12-28T10:18:47.538Z,98539
2017-12-28T10:23:49.127Z,98543
2017-12-28T10:28:52.295Z,98545
2017-12-28T10:33:53.815Z,98549
2017-12-28T10:38:55.417Z,98565
2017-12-28T10:43:56.976Z,98573
2017-12-28T10:48:58.512Z,98574
2017-12-28T10:54:00.047Z,98576
2017-12-28T10:59:01.596Z,98591
2017-12-28T11:04:03.141Z,98598
2017-12-28T11:09:04.640Z,98614
2017-12-28T11:14:06.227Z,98615
2017-12-28T11:19:07.760Z,98624
2017-12-28T11:24:09.288Z,98636
2017-12-28T11:29:10.783Z,98639
2017-12-28T11:34:12.290Z,98626
2017-12-28T11:39:13.879Z,98621
2017-12-28T11:44:16.149Z,98632
2017-12-28T11:49:17.682Z,98641
2017-12-28T11:54:26.336Z,98648
2017-12-28T11:59:33.574Z,98651
2017-12-28T12:04:41.222Z,98647
2017-12-28T12:09:48.727Z,98655
2017-12-28T12:14:50.240Z,98661
2017-12-28T12:19:51.761Z,98667
2017-12-28T12:24:53.296Z,98662
2017-12-28T12:29:54.836Z,98677
2017-12-28T12:34:56.380Z,98675
2017-12-28T12:39:58.025Z,98681
2017-12-28T12:44:59.564Z,98696
2017-12-28T12:50:01.084Z,98692
2017-12-28T12:55:02.586Z,98688
2017-12-28T13:00:04.854Z,98684
2017-12-28T13:05:06.409Z,98696
2017-12-28T13:10:07.932Z,98704
2017-12-28T13:15:09.493Z,98707
2017-12-28T13:20:11.039Z,98706
2017-12-28T13:25:13.336Z,98703
2017-12-28T13:30:15.611Z,98721
2017-12-28T13:35:17.904Z,98722
2017-12-28T13:40:20.181Z,98737
2017-12-28T13:45:22.475Z,98736
2017-12-28T13:50:24.728Z,98750
2017-12-28T13:55:26.227Z,98757
2017-12-28T14:00:28.505Z,98760
2017-12-28T14:05:30.821Z,98771
2017-12-28T14:10:32.352Z,98761
2017-12-28T14:15:34.633Z,98775
2017-12-28T14:20:36.156Z,98782
2017-12-28T14:25:37.750Z,98787
2017-12-28T14:30:39.361Z,98807
2017-12-28T14:35:40.932Z,98824
2017-12-28T14:40:42.422Z,98820
2017-12-28T14:45:43.976Z,98832
2017-12-28T14:50:45.514Z,98839
2017-12-28T14:55:47.707Z,98856
2017-12-28T15:00:49.922Z,98865
2017-12-28T15:05:58.432Z,98878
2017-12-28T15:11:00.016Z,98890
2017-12-28T15:16:01.523Z,98907
2017-12-28T15:21:03.022Z,98920
2017-12-28T15:26:05.323Z,98930
2017-12-28T15:31:06.842Z,98939
2017-12-28T15:36:08.460Z,98933
2017-12-28T15:41:16.986Z,98946
2017-12-28T15:46:18.737Z,98955
2017-12-28T15:51:21.018Z,98965
2017-12-28T15:56:22.552Z,98975
2017-12-28T16:01:24.090Z,98990
2017-12-28T16:06:25.633Z,99000
2017-12-28T16:11:27.930Z,99006
2017-12-28T16:16:29.471Z,99015
2017-12-28T16:21:31.013Z,99026
2017-12-28T16:26:32.865Z,99043
2017-12-28T16:31:34.417Z,99043
2017-12-28T16:36:35.956Z,99065
2017-12-28T16:41:38.228Z,99068
2017-12-28T16:46:39.775Z,99090
2017-12-28T16:51:41.477Z,99099
2017-12-28T16:56:43.749Z,99098
2017-12-28T17:01:45.273Z,99098
2017-12-28T17:06:46.793Z,99106
2017-12-28T17:11:48.306Z,99105
2017-12-28T17:16:49.912Z,99112
2017-12-28T17:21:51.502Z,99121
2017-12-28T17:26:54.006Z,99134
2017-12-28T17:31:56.309Z,99142
2017-12-28T17:36:58.041Z,99147
2017-12-28T17:41:59.627Z,99156
2017-12-28T17:47:01.953Z,99163
2017-12-28T17:52:03.596Z,99156
2017-12-28T17:57:05.186Z,99169
2017-12-28T18:02:06.745Z,99175
2017-12-28T18:07:09.124Z,99184
2017-12-28T18:12:10.632Z,99187
2017-12-28T18:17:12.261Z,99208
2017-12-28T18:22:13.804Z,99215
2017-12-28T18:27:16.127Z,99211
2017-12-28T18:32:17.884Z,99224
2017-12-28T18:37:19.452Z,99222
2017-12-28T18:42:20.985Z,99230
2017-12-28T18:47:22.613Z,99235
2017-12-28T18:52:24.126Z,99245
2017-12-28T18:57:25.721Z,99253
2017-12-28T19:02:27.243Z,99249
2017-12-28T19:07:28.778Z,99260
2017-12-28T19:12:30.331Z,99247
2017-12-28T19:17:31.920Z,99242
2017-12-28T19:22:33.467Z,99252
2017-12-28T19:27:35.039Z,99260
2017-12-28T19:32:36.669Z,99263
2017-12-28T19:37:38.210Z,99274
2017-12-28T19:42:39.784Z,99276
2017-12-28T19:47:41.342Z,99279
2017-12-28T19:52:42.904Z,99285
2017-12-28T19:57:44.429Z,99286
2017-12-28T20:02:46.836Z,99282
2017-12-28T20:07:48.521Z,99284
2017-12-28T20:12:50.126Z,99293
2017-12-28T20:17:51.725Z,99288
2017-12-28T20:22:53.280Z,99290
2017-12-28T20:27:55.585Z,99291
2017-12-28T20:32:57.882Z,99300
2017-12-28T20:37:59.417Z,99297
2017-12-28T20:43:01.704Z,99306
2017-12-28T20:48:04.046Z,99294
2017-12-28T20:53:05.598Z,99300
2017-12-28T20:58:07.160Z,99293
2017-12-28T21:03:08.710Z,99305
2017-12-28T21:08:11.044Z,99318
2017-12-28T21:13:12.533Z,99331
2017-12-28T21:18:14.076Z,99329
2017-12-28T21:23:17.011Z,99340
2017-12-28T21:28:19.447Z,99343
2017-12-28T21:33:21.578Z,99356
2017-12-28T21:38:23.533Z,99357
2017-12-28T21:43:25.279Z,99374
2017-12-28T21:48:26.828Z,99384
2017-12-28T21:53:28.582Z,99391
2017-12-28T21:58:30.852Z,99401
2017-12-28T22:03:32.531Z,99405
2017-12-28T22:08:34.802Z,99398
2017-12-28T22:13:36.484Z,99405
2017-12-28T22:18:38.771Z,99401
2017-12-28T22:23:41.021Z,99403
2017-12-28T22:28:42.550Z,99411
2017-12-28T22:33:44.096Z,99420
2017-12-28T22:38:46.386Z,99427
2017-12-28T22:43:48.679Z,99441
2017-12-28T22:48:50.877Z,99445
2017-12-28T22:53:52.371Z,99444
2017-12-28T22:58:53.872Z,99441
2017-12-28T23:03:55.425Z,99445
2017-12-28T23:08:56.967Z,99447
2017-12-28T23:13:58.443Z,99444
2017-12-28T23:18:59.924Z,99439
2017-12-28T23:24:01.426Z,99452
2017-12-28T23:29:03.784Z,99455
2017-12-28T23:34:05.307Z,99456
2017-12-28T23:39:06.942Z,99462
2017-12-28T23:44:08.448Z,99458
2017-12-28T23:49:10.735Z,99466
2017-12-28T23:54:12.218Z,99478
2017-12-28T23:59:13.686Z,99480
